Allingtown, Connecticut
Current Conditions -  °F | °C
As of 5:24 AM on Wednesday 22 Oct 2014 (Local Time) from KHVN Reporting Station
Overcast Overcast  
Wind Chill: 56°   Ceiling: 1400
Heat Index: 56°   Visibility: 10mi
Dew Point: 51°   Wind: 10mph
Humidity: 84%   Direction: 20°NNE
Pressure: 29.91"   Gusts: NA
Location:  41.2716°N, 72.9666°W
Report Text: KHVN 220924Z AUTO 02009KT 10SM BKN014 OVC026 13/11 A2991 RMK AO2 T01330106
Loading
Personal Weather Stations






























Interactive Weather Map
Tropical Storm Tracking
New forecast layout! Learn more

10-Day Weather Forecast

Advertisements
Track Severe Weather on mobile